Terminal Aerodrome Forecast
Issued by NWS

Home | Current Version | Previous Version | Text Only | Print | Product List | Glossary On
Versions: 1 2 3 4 5 6 7 8 9 10 11 12 13 14 15 16 17 18 19 20 21
000
FTUS43 KDDC 162322
TAFGCK
TAF
KGCK 162322Z 1700/1724 03012KT P6SM SKC
     FM170900 05007KT P6SM BKN050
     FM171100 05009KT P6SM OVC020
     FM171200 05010KT P6SM VCSH OVC015
     FM172000 09005KT P6SM BKN040=

USA.gov is the U.S. government's official web portal to all federal, state and local government web resources and services.